• Join FlightAware (Why Join?)
  • Login
  • US Flag 
12:04AM EST


 

Airport Tracker/Info


-or-


 

Live Flight TrackerFlight Track Log ✈ QJE1799 ✈ 05-Oct-2013 ✈ YBAS / ASP - YBBN / BNE

Flight Track Log - Related Links

Times and Time Zones

All times are in EDT time to prevent confusion due to time zone crossing. See the QJE1799 flight status page for this flight to view local times or setup timezone preferences in your user account.

Time Position Orientation Groundspeed Altitude Reporting Facility
EDT Latitude Longitude Course Direction KTS MPH feet Rate Location/Type
11:05PM -23.8060 133.9030 360° North 140 161  Level FlightAware
11:05PM -23.8020 133.8950 299° West 168 193 1,900 4,833 Climbing FlightAware
11:05PM -23.8142 133.9679 285° West 31,000 2,500 Climbing Aus ATC (Calculated)
11:05PM -23.7920 133.8770 301° West 177 204 2,900 -77,714 Descending FlightAware
11:06PM -23.7830 133.8620 301° West 170 196 3,800 2,143 Climbing FlightAware
11:06PM -23.7780 133.8570 318° Northwest 181 208 3,900 750 Climbing FlightAware
11:06PM -23.7730 133.8540 331° Northwest 189 217 4,000 500 Climbing FlightAware
11:06PM -23.7700 133.8530 343° North 195 224 4,000 500 Level FlightAware
11:06PM -23.8357 134.0576 292° West 31,000 750 Climbing Aus ATC (Calculated)
11:06PM -23.7610 133.8530 360° North 207 238 4,100 -107,200 Descending FlightAware
11:06PM -23.7550 133.8550 17° North 213 245 4,200 1,125 Climbing FlightAware
11:06PM -23.7480 133.8610 38° Northeast 219 252 4,400 1,286 Climbing FlightAware
11:06PM -23.7440 133.8670 54° Northeast 223 257 4,500 1,000 Climbing FlightAware
11:07PM -23.7420 133.8730 70° East 228 262 4,600 1,286 Climbing FlightAware
11:07PM -23.7410 133.8820 83° East 234 269 4,800 1,500 Climbing FlightAware
11:07PM -23.7490 133.9050 83° East 248 285 5,300 1,500 Climbing FlightAware
11:07PM -23.7550 133.9110 138° Southeast 253 291 5,500 1,500 Climbing FlightAware
11:07PM -23.7630 133.9160 150° Southeast 257 296 5,700 1,667 Climbing FlightAware
11:07PM -23.7730 133.9220 151° Southeast 264 304 6,000 2,118 Climbing FlightAware
11:08PM -23.8000 133.9390 150° Southeast 280 322 6,900 2,462 Climbing FlightAware
11:08PM -23.8160 133.9540 139° Southeast 282 325 7,600 2,727 Climbing FlightAware
11:08PM -23.8997 134.3269 283° West 31,000 2,571 Climbing Aus ATC (Calculated)
11:08PM -23.8210 133.9620 124° Southeast 281 323 7,900 -229,000 Descending FlightAware
11:08PM -23.8230 133.9680 110° East 279 321 8,100 2,400 Climbing FlightAware
11:09PM -23.8270 133.9910 110° East 282 325 8,700 2,333 Climbing FlightAware
11:09PM -23.8300 134.0200 96° East 291 335 9,500 2,357 Climbing FlightAware
11:09PM -23.9209 134.4167 284° West 31,000 2,333 Climbing Aus ATC (Calculated)
11:09PM -23.8400 134.0720 102° East 300 345 10,900 -15,943 Descending FlightAware
11:10PM -23.8520 134.1280 103° East 309 356 12,400 1,941 Climbing FlightAware
11:11PM -23.8640 134.1760 103° East 332 382 13,100 1,244 Climbing FlightAware
11:11PM -23.9843 134.6863 284° West 31,000 1,154 Climbing Aus ATC (Calculated)
11:11PM -23.9843 134.6863 284° West 31,000 -144,857 Level Aus ATC (Calculated)
11:11PM -23.8850 134.2630 103° East 370 426 14,100 -25,579 Descending FlightAware
11:12PM -24.0053 134.7763 284° West 31,000 1,167 Climbing Aus ATC (Calculated)
11:12PM -23.9010 134.3330 103° East 392 451 14,800 -22,950 Descending FlightAware
11:13PM -24.0263 134.8662 284° West 31,000 1,500 Climbing Aus ATC (Calculated)
11:13PM -23.9160 134.3980 103° East 400 460 15,700 -25,412 Descending FlightAware
11:13PM -23.9310 134.4620 103° East 408 470 16,600 1,765 Climbing FlightAware
11:14PM -24.0472 134.9562 284° West 31,000 1,784 Climbing Aus ATC (Calculated)
11:14PM -23.9500 134.5400 103° East 414 476 17,700 -16,304 Descending FlightAware
11:14PM -23.9670 134.6140 104° East 424 488 18,500 1,254 Climbing FlightAware
11:14PM -24.0681 135.0463 284° West 31,000 1,200 Climbing Aus ATC (Calculated)
11:15PM -23.9820 134.6760 105° East 432 497 19,100 -10,476 Descending FlightAware
11:16PM -24.0000 134.7560 105° East 439 505 20,000 1,437 Climbing FlightAware
11:16PM -24.0180 134.8300 105° East 444 511 20,800 1,333 Climbing FlightAware
11:16PM -24.1304 135.3165 284° West 31,000 1,263 Climbing Aus ATC (Calculated)
11:17PM -24.1304 135.3165 284° West 31,000 -18,800 Level Aus ATC (Calculated)
11:17PM -24.0370 134.9130 105° East 451 519 21,600 -13,200 Descending FlightAware
11:17PM -24.0530 134.9820 105° East 457 526 22,200 1,164 Climbing FlightAware
11:18PM -24.0710 135.0600 104° East 463 533 22,900 1,083 Climbing FlightAware
11:18PM -24.0900 135.1420 104° East 470 541 23,500 1,130 Climbing FlightAware
11:19PM -24.1090 135.2240 104° East 475 547 24,200 1,250 Climbing FlightAware
11:20PM -24.2127 135.6772 284° West 31,000 1,263 Climbing Aus ATC (Calculated)
11:20PM -24.1290 135.3100 104° East 478 550 25,000 -7,650 Descending FlightAware
11:20PM -24.1470 135.3910 104° East 476 548 25,900 1,391 Climbing FlightAware
11:21PM -24.2331 135.7675 284° West 31,000 1,273 Climbing Aus ATC (Calculated)
11:21PM -24.1660 135.4730 104° East 473 544 26,600 -4,680 Descending FlightAware
11:21PM -24.1840 135.5530 104° East 476 548 27,100 1,014 Climbing FlightAware
11:22PM -24.2739 135.9481 284° West 31,000 1,167 Climbing Aus ATC (Calculated)
11:22PM -24.2040 135.6400 104° East 474 545 27,800 -2,600 Descending FlightAware
11:22PM -24.2941 136.0384 284° West 31,000 1,000 Climbing Aus ATC (Calculated)
11:23PM -24.2220 135.7210 104° East 473 544 28,400 -2,553 Descending FlightAware
11:23PM -24.2390 135.7960 104° East 474 545 29,000 1,075 Climbing FlightAware
11:24PM -24.2570 135.8770 104° East 472 543 29,600 904 Climbing FlightAware
11:24PM -24.2770 135.9660 104° East 476 548 30,100 904 Climbing FlightAware
11:25PM -24.2960 136.0490 104° East 474 545 30,700 806 Climbing FlightAware
11:25PM -24.3747 136.4001 284° West 31,000 563 Climbing Aus ATC (Calculated)
11:25PM -24.3120 136.1210 104° East 474 545 31,000  Level FlightAware
11:26PM -24.3320 136.2080 104° East 472 543 31,000  Level FlightAware
11:27PM -24.3480 136.2840 103° East 473 544 31,000  Level FlightAware
11:27PM -24.3690 136.3750 104° East 474 545 31,000  Level FlightAware
11:28PM -24.3840 136.4470 103° East 474 545 31,000  Level FlightAware
11:28PM -24.4040 136.5370 104° East 474 545 31,000  Level FlightAware
11:29PM -24.4210 136.6110 104° East 474 545 31,000  Level FlightAware
11:29PM -24.4370 136.6830 104° East 475 547 31,000  Level FlightAware
11:30PM -24.5039 136.9893 284° West 31,000  Level Aus ATC (Calculated)
11:30PM -24.4530 136.7610 103° East 475 547 31,000  Level FlightAware
11:31PM -24.4750 136.8590 104° East 474 545 31,000  Level FlightAware
11:31PM -24.4920 136.9390 104° East 475 547 31,000  Level FlightAware
11:32PM -24.5100 137.0200 104° East 474 545 31,000  Level FlightAware
11:32PM -24.5290 137.1090 103° East 475 547 31,000  Level FlightAware
11:33PM -24.5460 137.1890 103° East 475 547 31,000  Level FlightAware
11:34PM -24.6137 137.5012 283° West 31,000  Level Aus ATC (Calculated)
11:34PM -24.5620 137.2650 103° East 475 547 31,000  Level FlightAware
11:34PM -24.5780 137.3390 103° East 475 547 31,000  Level FlightAware
11:35PM -24.5930 137.4110 103° East 475 547 31,000  Level FlightAware
11:36PM -24.6080 137.4830 103° East 475 547 31,000  Level FlightAware
11:36PM -24.6230 137.5550 103° East 475 547 31,000  Level FlightAware
11:37PM -24.7067 137.9421 283° West 31,000  Level Aus ATC (Calculated)
11:37PM -24.6380 137.6280 103° East 475 547 31,000  Level FlightAware
11:37PM -24.6540 137.7000 103° East 475 547 31,000  Level FlightAware
11:38PM -24.6690 137.7720 103° East 475 547 31,000  Level FlightAware
11:39PM -24.6840 137.8440 103° East 475 547 31,000  Level FlightAware
11:39PM -24.6990 137.9160 103° East 475 547 31,000  Level FlightAware
11:40PM -24.7140 137.9900 103° East 475 547 31,000  Level FlightAware
11:40PM -24.7300 138.0620 104° East 475 547 31,000  Level FlightAware
11:41PM -24.7450 138.1340 103° East 475 547 31,000  Level FlightAware
11:41PM -24.8522 138.6457 283° West 31,000  Level Aus ATC (Calculated)
11:42PM -24.7600 138.2090 103° East 475 547 31,000  Level FlightAware
11:42PM -24.7750 138.2810 103° East 475 547 31,000  Level FlightAware
11:43PM -24.7910 138.3530 104° East 475 547 31,000  Level FlightAware
11:43PM -24.8060 138.4270 103° East 475 547 31,000  Level FlightAware
11:44PM -24.8210 138.4990 103° East 475 547 31,000  Level FlightAware
11:45PM -24.8360 138.5710 103° East 475 547 31,000  Level FlightAware
11:45PM -24.8510 138.6440 103° East 475 547 31,000  Level FlightAware
11:46PM -24.8660 138.7120 104° East 475 547 31,000  Level FlightAware
11:46PM -24.8810 138.7840 104° East 475 547 31,000  Level FlightAware
11:46PM -25.0052 139.4052 282° West 31,000  Level Aus ATC (Calculated)
11:47PM -24.8960 138.8560 103° East 475 547 31,000  Level FlightAware
11:48PM -24.9110 138.9290 103° East 475 547 31,000  Level FlightAware
11:50PM -24.9653 139.1995 103° East  Level FlightAware Approximate
11:51PM -24.9924 139.3360 102° East  Level FlightAware Approximate
11:51PM -25.1438 140.1121 102° East 31,000  Level Aus ATC (Calculated)
11:52PM -25.0195 139.4725 102° East  Level FlightAware Approximate
11:53PM -25.1729 140.2626 102° East  Level FlightAware Approximate
11:54PM -25.1991 140.3996 102° East  Level FlightAware Approximate
11:55PM -25.2253 140.5365 102° East  Level FlightAware Approximate
11:56PM -25.2513 140.6736 102° East  Level FlightAware Approximate
11:56PM -25.2791 140.8206 102° East 31,000  Level Aus ATC (Calculated)
11:57PM -25.2772 140.8107 102° East  Level FlightAware Approximate
11:58PM -25.3082 140.9760 102° East  Level FlightAware Approximate
11:59PM -25.3339 141.1132 102° East  Level FlightAware Approximate
11:59PM -25.3403 141.1481 102° East 33,000  Level Aus ATC (Calculated)
12:00AM -25.3593 141.2505 102° East  Level FlightAware Approximate
12:01AM -25.5947 141.1481 180° South  Level FlightAware Approximate
12:01AM -25.4026 141.4855 101° East 33,000  Level Aus ATC (Calculated)
12:03AM -25.3581 141.2441 281° West  Level FlightAware Approximate
12:04AM -25.3616 141.2630 102° East  Level FlightAware Approximate
12:05AM -25.3889 141.4108 102° East  Level FlightAware Approximate
12:06AM -25.4160 141.5586 102° East  Level FlightAware Approximate
12:06AM -25.5348 142.2177 281° West 33,000  Level Aus ATC (Calculated)
12:07AM -25.5120 142.0890 102° East 481 554 31,000 -952 Descending FlightAware
12:08AM -25.5230 142.1510 101° East 481 554 31,000  Level FlightAware
12:08AM -25.5360 142.2250 101° East 481 554 31,000  Level FlightAware
12:09AM -25.5560 142.3390 101° East 480 552 31,000  Level FlightAware
12:10AM -25.5700 142.4180 101° East 479 551 31,000  Level FlightAware
12:10AM -25.5860 142.5050 102° East 481 554 31,000  Level FlightAware
12:11AM -25.5940 142.5540 100° East 481 554 31,000  Level FlightAware
12:11AM -25.6731 143.0079 281° West 33,000  Climbing Aus ATC (Calculated)
12:11AM -25.6150 142.6760 100° East 481 554 31,000 -1,500 Descending FlightAware
12:12AM -25.6926 143.1210 281° West 33,000 158 Climbing Aus ATC (Calculated)
12:12AM -25.7022 143.1775 281° West 33,000 -7,600 Level Aus ATC (Calculated)
12:12AM -25.6310 142.7660 100° East 481 554 31,100 -1,857 Descending FlightAware
12:13AM -25.6450 142.8430 101° East 482 555 31,700 943 Climbing FlightAware
12:13AM -25.6600 142.9350 101° East 486 559 32,200 845 Climbing FlightAware
12:14AM -25.6740 143.0150 101° East 486 559 32,700 706 Climbing FlightAware
12:14AM -25.6890 143.1030 101° East 487 560 33,000 250 Climbing FlightAware
12:15AM -25.7040 143.1920 101° East 483 556 33,000  Level FlightAware
12:16AM -25.7190 143.2780 101° East 483 556 33,000  Level FlightAware
12:16AM -25.7320 143.3560 100° East 483 556 33,000  Level FlightAware
12:17AM -25.7460 143.4390 101° East 484 557 33,000  Level FlightAware
12:17AM -25.8260 143.9133 280° West 33,000  Level Aus ATC (Calculated)
12:17AM -25.7610 143.5260 101° East 484 557 33,000  Level FlightAware
12:18AM -25.7760 143.6140 101° East 484 557 33,000  Level FlightAware
12:18AM -25.7900 143.7000 100° East 485 558 33,000  Level FlightAware
12:19AM -25.8040 143.7800 101° East 485 558 33,000  Level FlightAware
12:20AM -25.8190 143.8740 100° East 484 557 33,000  Level FlightAware
12:20AM -25.8330 143.9600 100° East 483 556 33,000  Level FlightAware
12:21AM -25.8460 144.0340 101° East 483 556 33,000  Level FlightAware
12:21AM -25.8610 144.1270 100° East 482 555 33,000  Level FlightAware
12:22AM -25.9461 144.6506 280° West 33,000  Level Aus ATC (Calculated)
12:22AM -25.8750 144.2140 100° East 483 556 33,000  Level FlightAware
12:23AM -25.8900 144.3020 100° East 483 556 33,000  Level FlightAware
12:23AM -25.9020 144.3810 100° East 483 556 33,000  Level FlightAware
12:24AM -25.9160 144.4650 101° East 483 556 33,000  Level FlightAware
12:24AM -25.9300 144.5530 100° East 484 557 33,000  Level FlightAware
12:25AM -25.9430 144.6310 101° East 484 557 33,000  Level FlightAware
12:25AM -26.0232 145.1391 280° West 33,000  Level Aus ATC (Calculated)
12:25AM -25.9580 144.7250 100° East 485 558 33,000  Level FlightAware
12:26AM -26.0426 145.2641 280° West 33,000  Level Aus ATC (Calculated)
12:26AM -25.9720 144.8130 100° East 484 557 33,000  Level FlightAware
12:27AM -25.9850 144.9010 100° East 485 558 33,000  Level FlightAware
12:27AM -25.9970 144.9770 100° East 485 558 33,000  Level FlightAware
12:28AM -26.0110 145.0650 100° East 484 557 33,000  Level FlightAware
12:28AM -26.0250 145.1540 100° East 485 558 33,000  Level FlightAware
12:29AM -26.0390 145.2420 100° East 485 558 33,000  Level FlightAware
12:29AM -26.0510 145.3210 100° East 486 559 33,000  Level FlightAware
12:30AM -26.0650 145.4110 100° East 486 559 33,000  Level FlightAware
12:31AM -26.0790 145.5000 100° East 486 559 33,000  Level FlightAware
12:31AM -26.1571 146.0153 280° West 33,000  Level Aus ATC (Calculated)
12:31AM -26.0920 145.5870 100° East 486 559 33,000  Level FlightAware
12:32AM -26.1040 145.6680 99° East 486 559 33,000  Level FlightAware
12:32AM -26.1851 146.2034 279° West 33,000  Level Aus ATC (Calculated)
12:32AM -26.1180 145.7560 99° East 486 559 33,000  Level FlightAware
12:33AM -26.1310 145.8460 99° East 486 559 33,000  Level FlightAware
12:33AM -26.2036 146.3288 279° West 33,000  Level Aus ATC (Calculated)
12:34AM -26.1430 145.9250 99° East 486 559 33,000  Level FlightAware
12:34AM -26.1570 146.0130 100° East 486 559 33,000  Level FlightAware
12:35AM -26.1700 146.1010 99° East 487 560 33,000  Level FlightAware
12:35AM -26.1820 146.1830 99° East 487 560 33,000  Level FlightAware
12:36AM -26.2586 146.7052 279° West 33,000  Level Aus ATC (Calculated)
12:36AM -26.1950 146.2750 99° East 487 560 33,000  Level FlightAware
12:37AM -26.2070 146.3570 99° East 488 562 33,000  Level FlightAware
12:37AM -26.2230 146.4630 99° East 488 562 33,000  Level FlightAware
12:38AM -26.2340 146.5390 99° East 488 562 33,000  Level FlightAware
12:38AM -26.2450 146.6170 99° East 488 562 33,000  Level FlightAware
12:39AM -26.2550 146.6930 98° East 488 562 33,000  Level FlightAware
12:40AM -26.3391 147.2705 279° West 33,000  Level Aus ATC (Calculated)
12:40AM -26.2660 146.7700 99° East 488 562 33,000  Level FlightAware
12:40AM -26.2770 146.8460 99° East 488 562 33,000  Level FlightAware
12:41AM -26.2880 146.9220 99° East 488 562 33,000  Level FlightAware
12:41AM -26.2990 146.9980 99° East 488 562 33,000  Level FlightAware
12:42AM -26.3090 147.0740 98° East 488 562 33,000  Level FlightAware
12:43AM -26.3200 147.1500 99° East 488 562 33,000  Level FlightAware
12:43AM -26.3310 147.2260 99° East 488 562 33,000  Level FlightAware
12:44AM -26.3420 147.3020 99° East 488 562 33,000  Level FlightAware
12:45AM -26.3530 147.3810 99° East 488 562 33,000  Level FlightAware
12:45AM -26.3640 147.4590 99° East 488 562 33,000  Level FlightAware
12:46AM -26.3750 147.5370 99° East 488 562 33,000  Level FlightAware
12:46AM -26.3860 147.6130 99° East 488 562 33,000  Level FlightAware
12:47AM -26.4284 147.9167 99° East 490 564 33,000  Level Aus ATC (RADAR)
12:48AM -26.4401 148.0038 99° East 488 562 33,000  Level Aus ATC (RADAR)
12:48AM -26.4585 148.1417 98° East 489 563 33,000  Level Aus ATC (RADAR)
12:49AM -26.4635 148.1796 99° East 490 564 33,000  Level Aus ATC (RADAR)
12:49AM -26.4752 148.2672 98° East 489 563 33,000  Level Aus ATC (RADAR)
12:50AM -26.4930 148.4046 98° East 486 559 33,000  Level Aus ATC (RADAR)
12:51AM -26.5044 148.4930 98° East 490 564 33,000  Level Aus ATC (RADAR)
12:52AM -26.5278 148.6689 98° East 490 564 33,000  Level Aus ATC (RADAR)
12:52AM -26.5325 148.7067 98° East 491 565 33,000  Level Aus ATC (RADAR)
12:53AM -26.5445 148.7948 99° East 490 564 33,000  Level Aus ATC (RADAR)
12:54AM -26.5730 148.9303 103° East 488 562 33,000  Level Aus ATC (RADAR)
12:54AM -26.5827 148.9798 102° East 488 562 33,000  Level Aus ATC (RADAR)
12:55AM -26.6002 149.0663 103° East 489 563 33,000  Level Aus ATC (RADAR)
12:55AM -26.6255 149.1900 103° East 488 562 33,000  Level Aus ATC (RADAR)
12:56AM -26.6433 149.2769 103° East 489 563 33,000  Level Aus ATC (RADAR)
12:57AM -26.6709 149.4128 103° East 487 560 33,000  Level Aus ATC (RADAR)
12:57AM -26.6781 149.4501 102° East 487 560 33,000  Level Aus ATC (RADAR)
12:58AM -26.6959 149.5370 103° East 488 562 33,000  Level Aus ATC (RADAR)
12:59AM -26.7282 149.6987 103° East 488 562 33,000  Level Aus ATC (RADAR)
12:59AM -26.7356 149.7360 103° East 489 563 33,000  Level Aus ATC (RADAR)
01:00AM -26.7529 149.8228 103° East 488 562 33,000  Level Aus ATC (RADAR)
01:01AM -26.7871 149.9978 102° East 492 566 33,000  Level Aus ATC (RADAR)
01:01AM -26.8042 150.0847 102° East 488 562 33,000  Level Aus ATC (RADAR)
01:02AM -26.8261 150.1974 102° East 490 564 33,000  Level Aus ATC (RADAR)
01:03AM -26.8432 150.2848 102° East 492 566 33,000  Level Aus ATC (RADAR)
01:03AM -26.8600 150.3710 102° East 496 571 33,000  Level FlightAware
01:04AM -26.8683 150.4140 102° East 496 571 33,000  Level FlightAware ADS-B
01:04AM -26.8868 150.5104 102° East 490 564 33,000  Level Aus ATC (RADAR)
01:04AM -26.8929 150.5414 102° East 497 572 33,000  Level FlightAware ADS-B
01:05AM -26.9080 150.6202 102° East 496 571 33,000  Level FlightAware ADS-B
01:05AM -26.9222 150.6940 102° East 497 572 33,000  Level FlightAware ADS-B
01:06AM -26.9358 150.7648 102° East 497 572 33,000  Level FlightAware ADS-B
01:07AM -26.9609 150.8967 102° East 498 573 33,000  Level FlightAware ADS-B
01:07AM -26.9751 150.9718 102° East 499 574 33,000  Level FlightAware ADS-B
01:08AM -26.9890 151.0465 102° East 498 573 33,000  Level FlightAware ADS-B
01:08AM -27.0037 151.1242 102° East 499 574 33,000  Level FlightAware ADS-B
01:09AM -27.0130 151.1742 102° East 499 574 33,000  Level FlightAware ADS-B
01:09AM -27.0275 151.2510 102° East 499 574 33,000  Level FlightAware ADS-B
01:10AM -27.0456 151.3471 102° East 500 575 33,000 -174 Level FlightAware ADS-B
01:10AM -27.0620 151.4256 103° East 497 572 32,800 -1,161 Descending FlightAware ADS-B
01:11AM -27.0904 151.4968 114° Southeast 482 555 31,800 -2,824 Descending FlightAware ADS-B
01:11AM -27.1340 151.5781 121° Southeast 485 558 29,600 -3,265 Descending FlightAware ADS-B
01:12AM -27.1676 151.6434 120° Southeast 481 554 28,100 -2,806 Descending FlightAware ADS-B
01:12AM -27.2022 151.7093 121° Southeast 466 536 26,700 -2,634 Descending FlightAware ADS-B
01:13AM -27.2134 151.7304 121° Southeast 462 532 26,300 -2,400 Descending FlightAware ADS-B
01:13AM -27.2453 151.7913 121° Southeast 454 522 25,100 -2,300 Descending FlightAware ADS-B
01:14AM -27.2766 151.8508 121° Southeast 452 520 24,000 -2,400 Descending FlightAware ADS-B
01:14AM -27.3089 151.9129 120° Southeast 441 507 22,700 -2,400 Descending FlightAware ADS-B
01:15AM -27.3390 151.9714 120° Southeast 434 499 21,600 -2,250 Descending FlightAware ADS-B
01:15AM -27.3485 151.9897 120° Southeast 433 498 21,200 -2,200 Descending FlightAware ADS-B
01:15AM -27.3696 152.0304 120° Southeast 430 495 20,500 -2,200 Descending FlightAware ADS-B
01:15AM -27.3791 152.0486 120° Southeast 429 494 20,100 -2,250 Descending FlightAware ADS-B
01:16AM -27.4085 152.1053 120° Southeast 418 481 19,000 -2,100 Descending FlightAware ADS-B
01:16AM -27.4382 152.1625 120° Southeast 411 473 18,000 -2,040 Descending FlightAware ADS-B
01:17AM -27.4571 152.1982 121° Southeast 404 465 17,300 -2,280 Descending FlightAware ADS-B
01:17AM -27.4850 152.2528 120° Southeast 395 455 16,100 -2,200 Descending FlightAware ADS-B
01:18AM -27.5113 152.3047 120° Southeast 386 444 15,100 -1,920 Descending FlightAware ADS-B
01:18AM -27.5289 152.3388 120° Southeast 379 436 14,500 -2,040 Descending FlightAware ADS-B
01:18AM -27.5555 152.3902 120° Southeast 369 425 13,400 -2,250 Descending FlightAware ADS-B
01:19AM -27.5636 152.4061 120° Southeast 366 421 13,000 -2,154 Descending FlightAware ADS-B
01:19AM -27.5810 152.4559 112° Southeast 351 404 12,000 -1,800 Descending FlightAware ADS-B
01:20AM -27.5930 152.5094 104° East 329 379 11,200 -1,082 Descending FlightAware ADS-B
01:20AM -27.6043 152.5566 105° East 299 344 10,900 -638 Descending FlightAware ADS-B
01:20AM -27.6102 152.5821 105° East 295 339 10,700 -750 Descending FlightAware ADS-B
01:21AM -27.6185 152.6171 105° East 297 342 10,400 -977 Descending FlightAware ADS-B
01:21AM -27.6255 152.6472 105° East 295 339 10,000 -1,421 Descending FlightAware ADS-B
01:21AM -27.6319 152.6743 105° East 295 339 9,500 -1,737 Descending FlightAware ADS-B
01:22AM -27.6382 152.7039 104° East 294 338 8,900 -1,688 Descending FlightAware ADS-B
01:22AM -27.6390 152.7213 93° East 294 338 8,600 -1,636 Descending FlightAware ADS-B
01:22AM -27.6370 152.7371 82° East 296 341 8,300 -1,800 Descending FlightAware ADS-B
01:22AM -27.6336 152.7517 75° East 293 337 8,000 -1,655 Descending FlightAware ADS-B
01:23AM -27.6271 152.7796 75° East 290 334 7,500 -1,650 Descending FlightAware ADS-B
01:23AM -27.6205 152.8111 77° East 290 334 6,900 -1,610 Descending FlightAware ADS-B
01:23AM -27.6143 152.8402 77° East 285 328 6,400 -1,650 Descending FlightAware ADS-B
01:24AM -27.6081 152.8686 76° East 282 325 5,800 -1,500 Descending FlightAware ADS-B
01:24AM -27.6017 152.8977 76° East 286 329 5,400 -900 Descending FlightAware ADS-B
01:24AM -27.5957 152.9255 76° East 270 311 5,200 -878 Descending FlightAware ADS-B
01:25AM -27.5897 152.9522 76° East 259 298 4,800 -1,050 Descending FlightAware ADS-B
01:25AM -27.5842 152.9774 76° East 240 276 4,500 -923 Descending FlightAware ADS-B
01:25AM -27.5788 153.0008 76° East 225 259 4,200 -800 Descending FlightAware ADS-B
01:25AM -27.5755 153.0119 71° East 218 251 4,100 -900 Descending FlightAware ADS-B
01:26AM -27.5693 153.0209 52° Northeast 213 245 3,900 -1,400 Descending FlightAware ADS-B
01:26AM -27.5538 153.0320 33° Northeast 212 244 3,400 -1,650 Descending FlightAware ADS-B
01:26AM -27.5352 153.0427 27° Northeast 219 252 2,800 -1,350 Descending FlightAware ADS-B
01:27AM -27.5177 153.0524 26° Northeast 208 239 2,500 -1,050 Descending FlightAware ADS-B
01:27AM -27.5005 153.0623 27° Northeast 191 220 2,100 -1,024 Descending FlightAware ADS-B
01:27AM -27.4856 153.0708 27° Northeast 176 203 1,800 -900 Descending FlightAware ADS-B
01:28AM -27.4714 153.0789 27° Northeast 160 184 1,500 -923 Descending FlightAware ADS-B
01:28AM -27.4598 153.0855 27° Northeast 142 163 1,200 -750 Descending FlightAware ADS-B
01:28AM -27.4478 153.0925 27° Northeast 137 158 1,000 -600 Descending FlightAware ADS-B
01:29AM -27.4367 153.0989 27° Northeast 137 158 800 -615 Descending FlightAware ADS-B
01:29AM -27.4258 153.1048 26° Northeast 136 157 600 -750 Descending FlightAware ADS-B
01:29AM -27.4140 153.1117 27° Northeast 139 160 300 -732 Descending FlightAware ADS-B
01:30AM -27.4039 153.1176 27° Northeast 136 157 100 -600 Descending FlightAware ADS-B
01:30AM -27.3926 153.1240 27° Northeast 90 104 -300 Descending FlightAware ADS-B